KSKA/SKA METAR and TAF weather

Enter ICAO airport designator
Station Type Date Time Source
KSKA METAR 2022/06/28 13:58 UTC NOAA

KSKA 281358Z AUTO 20007KT 10SM CLR 19/11 A2990 RMK AO2 SLP109 T01930108 PWINO $


Station Type Date Time Source
KSKA Decoded METAR 2022/06/28 13:58 UTC NOAA

Fairchild Air Force Base, WA, United States (KSKA) 47-37N 117-39W
Jun 28, 2022 - 09:58 AM EDT / 2022.06.28 1358 UTC
Wind: from the SSW (200 degrees) at 8 MPH (7 KT):0
Visibility: 10 mile(s):0
Sky conditions: clear
Temperature: 66.7 F (19.3 C)
Dew Point: 51.4 F (10.8 C)
Relative Humidity: 57%
Pressure (altimeter): 29.9 in. Hg (1012 hPa)
ob: KSKA 281358Z AUTO 20007KT 10SM CLR 19/11 A2990 RMK AO2 SLP109 T01930108 PWINO
cycle: 14

Station Type Date Time Source
KSKA TAF 2022/06/28 11:03 UTC NOAA

TAF TAF KSKA 281100Z 2811/2917 18009KT 9999 SKC QNH2989INS
BECMG 2815/2816 20012G22KT 9999 SCT150 QNH2991INS
BECMG 2818/2820 21020G30KT 9999 SCT150 510003 QNH2991INS
BECMG 2902/2903 22009KT 9999 BKN050 QNH2992INS
BECMG 2914/2915 23012G18KT 9999 SCT080 QNH3007INS TX29/2820Z TN15/2812Z

Example: see airport list